Time,TemperatureF,DewpointF,PressureIn,WindDirection,WindDirectionDegrees,WindSpeedMPH,WindSpeedGustMPH,Humidity,HourlyPrecipIn,Conditions,Clouds,dailyrainin,SoftwareType,DateUTC
2013-05-31 00:02:00,80.0,72.0,29.42,ESE,113,6.0,13.0,77,0.00,,,0.00,,2013-05-31 05:02:00,
2013-05-31 00:12:00,80.0,72.0,29.42,ESE,113,6.0,13.0,77,0.00,,,0.00,,2013-05-31 05:12:00,
2013-05-31 00:22:00,80.0,72.0,29.43,ESE,104,4.0,12.0,78,0.00,,,0.00,,2013-05-31 05:22:00,
2013-05-31 00:32:00,79.0,72.0,29.43,East,99,7.0,13.0,79,0.00,,,0.00,,2013-05-31 05:32:00,
2013-05-31 00:42:00,79.0,72.0,29.43,East,99,7.0,13.0,79,0.00,,,0.00,,2013-05-31 05:42:00,
2013-05-31 00:52:00,79.0,72.0,29.43,South,172,9.0,18.0,80,0.00,,,0.00,,2013-05-31 05:52:00,
2013-05-31 01:02:00,79.0,73.0,29.43,ESE,110,6.0,15.0,81,0.00,,,0.00,,2013-05-31 06:02:00,
2013-05-31 01:12:00,79.0,73.0,29.43,ESE,110,6.0,15.0,81,0.00,,,0.00,,2013-05-31 06:12:00,
2013-05-31 01:21:00,78.0,72.0,29.43,ESE,113,7.0,20.0,82,0.00,,,0.00,,2013-05-31 06:21:00,
2013-05-31 01:31:00,78.0,72.0,29.42,ESE,114,6.0,18.0,82,0.00,,,0.00,,2013-05-31 06:31:00,
2013-05-31 01:41:00,78.0,72.0,29.42,ESE,114,6.0,18.0,82,0.00,,,0.00,,2013-05-31 06:41:00,
2013-05-31 01:52:00,78.0,72.0,29.42,SE,136,7.0,17.0,83,0.00,,,0.00,,2013-05-31 06:52:00,
2013-05-31 02:02:00,77.0,72.0,29.41,South,170,7.0,16.0,84,0.00,,,0.00,,2013-05-31 07:02:00,
2013-05-31 02:11:00,77.0,72.0,29.41,South,170,7.0,16.0,84,0.00,,,0.00,,2013-05-31 07:11:00,
2013-05-31 02:21:00,77.0,72.0,29.41,South,169,5.0,16.0,85,0.00,,,0.00,,2013-05-31 07:21:00,
2013-05-31 02:32:00,77.0,72.0,29.41,ESE,109,6.0,17.0,85,0.00,,,0.00,,2013-05-31 07:32:00,
2013-05-31 02:41:00,77.0,72.0,29.41,ESE,109,6.0,17.0,85,0.00,,,0.00,,2013-05-31 07:41:00,
2013-05-31 02:52:00,77.0,72.0,29.41,ESE,107,6.0,15.0,86,0.00,,,0.00,,2013-05-31 07:52:00,
2013-05-31 03:02:00,76.0,72.0,29.41,SE,146,8.0,18.0,86,0.00,,,0.00,,2013-05-31 08:02:00,
2013-05-31 03:11:00,76.0,72.0,29.41,SE,146,8.0,18.0,86,0.00,,,0.00,,2013-05-31 08:11:00,
2013-05-31 03:22:00,76.0,72.0,29.40,SSW,192,5.0,19.0,87,0.00,,,0.00,,2013-05-31 08:22:00,
2013-05-31 03:32:00,76.0,72.0,29.40,SSE,162,4.0,14.0,87,0.00,,,0.00,,2013-05-31 08:32:00,
2013-05-31 03:42:00,76.0,72.0,29.40,SSE,162,4.0,14.0,87,0.00,,,0.00,,2013-05-31 08:42:00,
2013-05-31 03:52:00,76.0,72.0,29.40,South,190,7.0,19.0,87,0.00,,,0.00,,2013-05-31 08:52:00,
2013-05-31 04:01:00,76.0,72.0,29.41,SE,142,6.0,14.0,88,0.00,,,0.00,,2013-05-31 09:01:00,
2013-05-31 04:11:00,76.0,72.0,29.41,SE,142,6.0,14.0,88,0.00,,,0.00,,2013-05-31 09:11:00,
2013-05-31 04:21:00,76.0,72.0,29.41,WSW,237,6.0,13.0,87,0.00,,,0.00,,2013-05-31 09:21:00,
2013-05-31 04:32:00,76.0,72.0,29.42,SSE,159,6.0,13.0,87,0.00,,,0.00,,2013-05-31 09:32:00,
2013-05-31 04:43:00,76.0,72.0,29.42,SSE,159,6.0,13.0,87,0.00,,,0.00,,2013-05-31 09:43:00,
2013-05-31 04:53:00,76.0,72.0,29.42,SSE,153,8.0,16.0,86,0.00,,,0.00,,2013-05-31 09:53:00,
2013-05-31 05:02:00,76.0,71.0,29.42,SE,136,8.0,14.0,85,0.00,,,0.00,,2013-05-31 10:02:00,
2013-05-31 05:12:00,76.0,71.0,29.42,SE,136,8.0,14.0,85,0.00,,,0.00,,2013-05-31 10:12:00,
2013-05-31 05:22:00,76.0,70.0,29.42,SSE,157,9.0,18.0,83,0.00,,,0.00,,2013-05-31 10:22:00,
2013-05-31 05:33:00,76.0,70.0,29.43,SE,134,8.0,18.0,83,0.00,,,0.00,,2013-05-31 10:33:00,
2013-05-31 05:42:00,76.0,70.0,29.43,SE,134,8.0,18.0,83,0.00,,,0.00,,2013-05-31 10:42:00,
2013-05-31 05:52:00,76.0,70.0,29.44,SW,214,8.0,17.0,83,0.00,,,0.00,,2013-05-31 10:52:00,
2013-05-31 06:02:00,76.0,71.0,29.44,South,184,7.0,15.0,84,0.00,,,0.00,,2013-05-31 11:02:00,
2013-05-31 06:11:00,76.0,71.0,29.44,South,184,7.0,15.0,84,0.00,,,0.00,,2013-05-31 11:11:00,
2013-05-31 06:22:00,76.0,71.0,29.44,SE,144,7.0,13.0,85,0.00,,,0.00,,2013-05-31 11:22:00,
2013-05-31 06:32:00,76.0,71.0,29.44,SE,127,7.0,13.0,85,0.00,,,0.00,,2013-05-31 11:32:00,
2013-05-31 06:42:00,76.0,71.0,29.44,SE,127,7.0,13.0,85,0.00,,,0.00,,2013-05-31 11:42:00,
2013-05-31 06:52:00,76.0,72.0,29.45,SSE,155,7.0,17.0,86,0.00,,,0.00,,2013-05-31 11:52:00,
2013-05-31 07:01:00,76.0,72.0,29.46,SE,134,3.0,15.0,87,0.00,,,0.00,,2013-05-31 12:01:00,
2013-05-31 07:11:00,76.0,72.0,29.46,SE,134,3.0,15.0,87,0.00,,,0.00,,2013-05-31 12:11:00,
2013-05-31 07:21:00,76.0,72.0,29.46,ESE,117,4.0,16.0,87,0.00,,,0.00,,2013-05-31 12:21:00,
2013-05-31 07:31:00,76.0,72.0,29.47,SSE,152,5.0,15.0,87,0.00,,,0.00,,2013-05-31 12:31:00,
2013-05-31 07:41:00,76.0,72.0,29.47,SSE,152,5.0,15.0,87,0.00,,,0.00,,2013-05-31 12:41:00,
2013-05-31 07:52:00,76.0,72.0,29.47,SSE,155,4.0,11.0,87,0.00,,,0.00,,2013-05-31 12:52:00,
2013-05-31 08:01:00,76.0,72.0,29.47,South,173,6.0,14.0,86,0.00,,,0.00,,2013-05-31 13:01:00,
2013-05-31 08:11:00,76.0,72.0,29.47,South,173,6.0,14.0,86,0.00,,,0.00,,2013-05-31 13:11:00,
2013-05-31 08:21:00,76.0,72.0,29.48,SE,139,3.0,9.0,87,0.00,,,0.00,,2013-05-31 13:21:00,
2013-05-31 08:32:00,76.0,72.0,29.48,South,175,5.0,14.0,87,0.00,,,0.00,,2013-05-31 13:32:00,
2013-05-31 08:42:00,76.0,72.0,29.48,South,175,5.0,14.0,87,0.00,,,0.00,,2013-05-31 13:42:00,
2013-05-31 08:52:00,77.0,73.0,29.48,ESE,121,8.0,15.0,87,0.00,,,0.00,,2013-05-31 13:52:00,
2013-05-31 09:02:00,76.0,72.0,29.48,SSE,161,4.0,11.0,88,0.00,,,0.00,,2013-05-31 14:02:00,
2013-05-31 09:11:00,76.0,72.0,29.48,SSE,161,4.0,11.0,88,0.00,,,0.00,,2013-05-31 14:11:00,
2013-05-31 09:21:00,77.0,72.0,29.48,SSW,205,7.0,12.0,86,0.00,,,0.00,,2013-05-31 14:21:00,
2013-05-31 09:32:00,77.0,72.0,29.48,SE,135,4.0,12.0,85,0.00,,,0.00,,2013-05-31 14:32:00,
2013-05-31 09:41:00,77.0,72.0,29.48,SE,135,4.0,12.0,85,0.00,,,0.00,,2013-05-31 14:41:00,
2013-05-31 09:52:00,78.0,73.0,29.48,South,171,6.0,12.0,85,0.00,,,0.00,,2013-05-31 14:52:00,
2013-05-31 10:01:00,78.0,73.0,29.48,South,180,6.0,16.0,84,0.00,,,0.00,,2013-05-31 15:01:00,
2013-05-31 10:11:00,78.0,73.0,29.48,South,180,6.0,16.0,84,0.00,,,0.00,,2013-05-31 15:11:00,
2013-05-31 10:21:00,79.0,73.0,29.48,SSE,157,5.0,17.0,83,0.00,,,0.00,,2013-05-31 15:21:00,
2013-05-31 10:33:00,79.0,73.0,29.48,SSE,168,6.0,11.0,82,0.00,,,0.00,,2013-05-31 15:33:00,
2013-05-31 10:43:00,79.0,73.0,29.48,SSE,168,6.0,11.0,82,0.00,,,0.00,,2013-05-31 15:43:00,
2013-05-31 10:53:00,80.0,74.0,29.47,SSE,148,4.0,11.0,81,0.00,,,0.00,,2013-05-31 15:53:00,
2013-05-31 11:03:00,80.0,73.0,29.47,SSE,148,4.0,14.0,80,0.00,,,0.00,,2013-05-31 16:03:00,
2013-05-31 11:12:00,80.0,73.0,29.47,SSE,148,4.0,14.0,80,0.00,,,0.00,,2013-05-31 16:12:00,
2013-05-31 11:22:00,80.0,73.0,29.47,ESE,117,7.0,15.0,79,0.00,,,0.00,,2013-05-31 16:22:00,
2013-05-31 11:33:00,80.0,73.0,29.47,South,173,8.0,17.0,79,0.00,,,0.00,,2013-05-31 16:33:00,
2013-05-31 11:42:00,80.0,73.0,29.47,South,173,8.0,17.0,79,0.00,,,0.00,,2013-05-31 16:42:00,
2013-05-31 11:52:00,81.0,73.0,29.47,SSE,159,6.0,15.0,78,0.00,,,0.00,,2013-05-31 16:52:00,
2013-05-31 12:02:00,82.0,74.0,29.46,South,182,6.0,13.0,76,0.00,,,0.00,,2013-05-31 17:02:00,
2013-05-31 12:12:00,82.0,74.0,29.46,South,182,6.0,13.0,76,0.00,,,0.00,,2013-05-31 17:12:00,
2013-05-31 12:22:00,82.0,73.0,29.46,SW,236,4.0,13.0,75,0.00,,,0.00,,2013-05-31 17:22:00,
2013-05-31 12:32:00,83.0,74.0,29.46,SE,136,6.0,15.0,74,0.00,,,0.00,,2013-05-31 17:32:00,
2013-05-31 12:42:00,83.0,74.0,29.46,SE,136,6.0,15.0,74,0.00,,,0.00,,2013-05-31 17:42:00,
2013-05-31 12:52:00,84.0,74.0,29.45,South,189,9.0,14.0,71,0.00,,,0.00,,2013-05-31 17:52:00,
2013-05-31 13:01:00,84.0,74.0,29.46,South,170,8.0,17.0,71,0.00,,,0.00,,2013-05-31 18:01:00,
2013-05-31 13:11:00,84.0,74.0,29.46,South,170,8.0,17.0,71,0.00,,,0.00,,2013-05-31 18:11:00,
2013-05-31 13:22:00,85.0,74.0,29.45,SSE,148,6.0,16.0,70,0.00,,,0.00,,2013-05-31 18:22:00,
2013-05-31 13:32:00,86.0,74.0,29.45,SE,134,6.0,17.0,67,0.00,,,0.00,,2013-05-31 18:32:00,
2013-05-31 13:42:00,86.0,74.0,29.45,SE,134,6.0,17.0,67,0.00,,,0.00,,2013-05-31 18:42:00,
2013-05-31 13:52:00,87.0,74.0,29.44,ESE,123,9.0,17.0,66,0.00,,,0.00,,2013-05-31 18:52:00,
2013-05-31 14:02:00,87.0,74.0,29.44,SSE,165,10.0,18.0,66,0.00,,,0.00,,2013-05-31 19:02:00,
2013-05-31 14:11:00,87.0,74.0,29.44,SSE,165,10.0,18.0,66,0.00,,,0.00,,2013-05-31 19:11:00,
2013-05-31 14:22:00,87.0,75.0,29.43,South,175,6.0,19.0,67,0.00,,,0.00,,2013-05-31 19:22:00,
2013-05-31 14:32:00,87.0,73.0,29.42,SSE,161,6.0,17.0,64,0.00,,,0.00,,2013-05-31 19:32:00,
2013-05-31 14:42:00,87.0,73.0,29.42,SSE,161,6.0,17.0,64,0.00,,,0.00,,2013-05-31 19:42:00,
2013-05-31 14:52:00,88.0,74.0,29.42,South,188,7.0,17.0,63,0.00,,,0.00,,2013-05-31 19:52:00,
2013-05-31 15:01:00,88.0,73.0,29.41,SSE,159,7.0,17.0,62,0.00,,,0.00,,2013-05-31 20:01:00,
2013-05-31 15:11:00,88.0,73.0,29.41,SSE,159,7.0,17.0,62,0.00,,,0.00,,2013-05-31 20:11:00,
2013-05-31 15:22:00,89.0,73.0,29.41,ESE,115,10.0,16.0,60,0.00,,,0.00,,2013-05-31 20:22:00,
2013-05-31 15:31:00,89.0,73.0,29.40,SSE,163,6.0,18.0,60,0.00,,,0.00,,2013-05-31 20:31:00,
2013-05-31 15:41:00,89.0,73.0,29.40,SSE,163,6.0,18.0,60,0.00,,,0.00,,2013-05-31 20:41:00,
2013-05-31 15:52:00,90.0,74.0,29.40,SE,143,6.0,19.0,59,0.00,,,0.00,,2013-05-31 20:52:00,
2013-05-31 16:01:00,90.0,73.0,29.39,South,177,8.0,20.0,58,0.00,,,0.00,,2013-05-31 21:01:00,
2013-05-31 16:11:00,90.0,73.0,29.39,South,177,8.0,20.0,58,0.00,,,0.00,,2013-05-31 21:11:00,
2013-05-31 16:22:00,90.0,73.0,29.39,SSE,147,7.0,17.0,57,0.00,,,0.00,,2013-05-31 21:22:00,
2013-05-31 16:32:00,89.0,71.0,29.39,SSE,164,10.0,20.0,56,0.00,,,0.00,,2013-05-31 21:32:00,
2013-05-31 16:42:00,89.0,71.0,29.39,SSE,164,10.0,20.0,56,0.00,,,0.00,,2013-05-31 21:42:00,
2013-05-31 16:54:00,90.0,72.0,29.38,SSE,161,8.0,18.0,56,0.00,,,0.00,,2013-05-31 21:54:00,
2013-05-31 17:02:00,90.0,72.0,29.38,SE,136,8.0,17.0,56,0.00,,,0.00,,2013-05-31 22:02:00,
2013-05-31 17:12:00,90.0,72.0,29.38,SE,136,8.0,17.0,56,0.00,,,0.00,,2013-05-31 22:12:00,
2013-05-31 17:22:00,89.0,72.0,29.38,SSE,162,9.0,18.0,57,0.00,,,0.00,,2013-05-31 22:22:00,
2013-05-31 17:33:00,89.0,72.0,29.37,ESE,114,7.0,21.0,57,0.00,,,0.00,,2013-05-31 22:33:00,
2013-05-31 17:42:00,89.0,72.0,29.37,ESE,114,7.0,21.0,57,0.00,,,0.00,,2013-05-31 22:42:00,
2013-05-31 17:53:00,89.0,72.0,29.37,SSE,150,7.0,18.0,58,0.00,,,0.00,,2013-05-31 22:53:00,
2013-05-31 18:02:00,89.0,72.0,29.36,SE,131,8.0,21.0,58,0.00,,,0.00,,2013-05-31 23:02:00,
2013-05-31 18:12:00,89.0,72.0,29.36,SE,131,8.0,21.0,58,0.00,,,0.00,,2013-05-31 23:12:00,
2013-05-31 18:21:00,88.0,71.0,29.36,SSE,153,8.0,18.0,58,0.00,,,0.00,,2013-05-31 23:21:00,
2013-05-31 18:32:00,88.0,72.0,29.36,South,178,8.0,19.0,60,0.00,,,0.00,,2013-05-31 23:32:00,
2013-05-31 18:42:00,88.0,72.0,29.36,South,178,8.0,19.0,60,0.00,,,0.00,,2013-05-31 23:42:00,
2013-05-31 18:52:00,88.0,73.0,29.35,SSE,152,7.0,17.0,61,0.00,,,0.00,,2013-05-31 23:52:00,
2013-05-31 19:01:00,87.0,72.0,29.35,SSE,150,7.0,24.0,61,0.00,,,0.00,,2013-06-01 00:01:00,
2013-05-31 19:11:00,87.0,72.0,29.35,SSE,150,7.0,24.0,61,0.00,,,0.00,,2013-06-01 00:11:00,
2013-05-31 19:22:00,87.0,72.0,29.34,South,173,8.0,14.0,62,0.00,,,0.00,,2013-06-01 00:22:00,
2013-05-31 19:32:00,87.0,73.0,29.34,SE,143,9.0,21.0,63,0.00,,,0.00,,2013-06-01 00:32:00,
2013-05-31 19:42:00,87.0,73.0,29.34,SE,143,9.0,21.0,63,0.00,,,0.00,,2013-06-01 00:42:00,
2013-05-31 19:52:00,86.0,73.0,29.33,SSE,153,6.0,17.0,65,0.00,,,0.00,,2013-06-01 00:52:00,
2013-05-31 20:01:00,86.0,73.0,29.33,South,171,6.0,18.0,66,0.00,,,0.00,,2013-06-01 01:01:00,
2013-05-31 20:11:00,86.0,73.0,29.33,South,171,6.0,18.0,66,0.00,,,0.00,,2013-06-01 01:11:00,
2013-05-31 20:22:00,86.0,74.0,29.33,SSW,194,6.0,17.0,67,0.00,,,0.00,,2013-06-01 01:22:00,
2013-05-31 20:32:00,85.0,73.0,29.33,SE,139,7.0,13.0,68,0.00,,,0.00,,2013-06-01 01:32:00,
2013-05-31 20:42:00,85.0,74.0,29.33,SE,137,6.0,15.0,69,0.00,,,0.00,,2013-06-01 01:42:00,
2013-05-31 20:52:00,85.0,74.0,29.33,SE,137,6.0,15.0,69,0.00,,,0.00,,2013-06-01 01:52:00,
2013-05-31 21:01:00,84.0,73.0,29.33,SE,140,6.0,13.0,70,0.00,,,0.00,,2013-06-01 02:01:00,
2013-05-31 21:11:00,84.0,73.0,29.33,SE,140,6.0,13.0,70,0.00,,,0.00,,2013-06-01 02:11:00,
2013-05-31 21:21:00,84.0,73.0,29.33,SE,140,6.0,13.0,70,0.00,,,0.00,,2013-06-01 02:21:00,
2013-05-31 21:32:00,84.0,74.0,29.33,SSE,157,6.0,17.0,71,0.00,,,0.00,,2013-06-01 02:32:00,
2013-05-31 21:42:00,83.0,73.0,29.34,South,175,3.0,9.0,72,0.00,,,0.00,,2013-06-01 02:42:00,
2013-05-31 21:51:00,83.0,73.0,29.34,South,175,3.0,9.0,72,0.00,,,0.00,,2013-06-01 02:51:00,
2013-05-31 22:01:00,83.0,74.0,29.36,SSE,157,2.0,9.0,74,0.00,,,0.00,,2013-06-01 03:01:00,
2013-05-31 22:11:00,83.0,74.0,29.36,SSE,157,2.0,9.0,74,0.00,,,0.00,,2013-06-01 03:11:00,
2013-05-31 22:21:00,82.0,73.0,29.36,ESE,115,2.0,12.0,75,0.00,,,0.00,,2013-06-01 03:21:00,
2013-05-31 22:33:00,82.0,74.0,29.36,SE,131,3.0,8.0,76,0.00,,,0.00,,2013-06-01 03:33:00,
2013-05-31 22:43:00,82.0,73.0,29.36,SSE,150,4.0,8.0,75,0.00,,,0.00,,2013-06-01 03:43:00,
2013-05-31 22:53:00,82.0,73.0,29.36,SSE,150,4.0,8.0,75,0.00,,,0.00,,2013-06-01 03:53:00,
2013-05-31 23:02:00,82.0,73.0,29.36,ESE,105,5.0,11.0,74,0.00,,,0.00,,2013-06-01 04:02:00,
2013-05-31 23:12:00,82.0,73.0,29.36,ESE,105,5.0,11.0,74,0.00,,,0.00,,2013-06-01 04:12:00,
2013-05-31 23:23:00,82.0,73.0,29.37,SE,126,6.0,17.0,74,0.00,,,0.00,,2013-06-01 04:23:00,
2013-05-31 23:33:00,82.0,73.0,29.37,SSE,147,6.0,16.0,74,0.00,,,0.00,,2013-06-01 04:33:00,
2013-05-31 23:42:00,82.0,73.0,29.37,SSE,156,6.0,14.0,75,0.00,,,0.00,,2013-06-01 04:42:00,
2013-05-31 23:53:00,82.0,73.0,29.37,SSE,156,6.0,14.0,75,0.00,,,0.00,,2013-06-01 04:53:00,